Terminal Aerodrome Forecast
Issued by NWS

Home | Current Version | Previous Version | Text Only | Print | Product List | Glossary On
Versions: 1 2 3 4 5 6 7 8 9 10 11 12
000
FTUS45 KABQ 211100
TAFAEG
TAF
KAEG 211124Z 2112/2212 30006KT P6SM SCT090
     FM211900 21007KT P6SM FEW110 SCT200
     FM220400 30008KT P6SM SCT080 BKN150
     FM220900 31008KT P6SM VCSH BKN090=

USA.gov is the U.S. government's official web portal to all federal, state and local government web resources and services.